Mr Chip — WDC3048 — position and weather

sailwx.info

Track history (hours):
 
Tides and Currents Weather Stations Pressure Air Temp Water Temp Dewpoint Dewpoint Depression Visibility Wind Speed Wind Dir Waves Ship Positions

Mr Chip

Owner: CENTRAL BOAT RENTALS, BERWICK, LA. More information available from US FCC via Universal Licensing System and Coast Guard Vessel Documentation Center.

Last reported at 2017-Oct-17 02:59 UTC. Time now 2017-Oct-20 18:24 UTC.
Position N 29°21' W 090°44'.

Length 14 m; draft 2.3 m.

Type: Tug. MMSI: 367001990.

Date/timePositionNaut miles runAvg speedWind from/ knotsBaromVisibWave heightAir tempDewpointWater temp
2017-Oct-17 02:59N 29°21' W 090°44'3 5.5
2017-Oct-17 02:30N 29°23' W 090°44'3 5.4
2017-Oct-17 02:00N 29°26' W 090°43'3 6.3
2017-Oct-17 01:30N 29°29' W 090°43'3 6.1
2017-Oct-17 01:00N 29°32' W 090°42'2 4.7
2017-Oct-17 00:30N 29°34' W 090°43'2 4.0
2017-Oct-17 00:00N 29°33' W 090°45'2 4.8
2017-Oct-16 23:30N 29°32' W 090°47'3 5.4
2017-Oct-16 22:58N 29°32' W 090°51'3 5.2
2017-Oct-16 22:25N 29°33' W 090°54'  
2017-Oct-07 07:14N 29°50' W 091°59'2 6.7
2017-Oct-07 06:56N 29°49' W 092°02'3 6.5
2017-Oct-07 06:30N 29°48' W 092°05'3 6.4
2017-Oct-07 06:00N 29°47' W 092°08'3 6.0
2017-Oct-07 05:30N 29°47' W 092°11'1 1.8
2017-Oct-07 05:00N 29°47' W 092°12'1 1.9
2017-Oct-07 04:30N 29°48' W 092°13'0 0.0
2017-Oct-07 04:00N 29°48' W 092°13'1 1.6
2017-Oct-07 03:30N 29°48' W 092°14'3 6.1
2017-Oct-07 03:00N 29°49' W 092°17'  
Track history (hours):
 
Tides and Currents Weather Stations Pressure Air Temp Water Temp Dewpoint Dewpoint Depression Visibility Wind Speed Wind Dir Waves Ship Positions

Mr Chip

Owner: CENTRAL BOAT RENTALS, BERWICK, LA. More information available from US FCC via Universal Licensing System and Coast Guard Vessel Documentation Center.

Last reported at 2017-Oct-17 02:59 UTC. Time now 2017-Oct-20 18:24 UTC.
Position N 29°21' W 090°44'.

Length 14 m; draft 2.3 m.

Type: Tug. MMSI: 367001990.

Date/timePositionNaut miles runAvg speedWind from/ knotsBaromVisibWave heightAir tempDewpointWater temp
2017-Oct-17 02:59N 29°21' W 090°44'3 5.5
2017-Oct-17 02:30N 29°23' W 090°44'3 5.4
2017-Oct-17 02:00N 29°26' W 090°43'3 6.3
2017-Oct-17 01:30N 29°29' W 090°43'3 6.1
2017-Oct-17 01:00N 29°32' W 090°42'2 4.7
2017-Oct-17 00:30N 29°34' W 090°43'2 4.0
2017-Oct-17 00:00N 29°33' W 090°45'2 4.8
2017-Oct-16 23:30N 29°32' W 090°47'3 5.4
2017-Oct-16 22:58N 29°32' W 090°51'3 5.2
2017-Oct-16 22:25N 29°33' W 090°54'  
2017-Oct-07 07:14N 29°50' W 091°59'2 6.7
2017-Oct-07 06:56N 29°49' W 092°02'3 6.5
2017-Oct-07 06:30N 29°48' W 092°05'3 6.4
2017-Oct-07 06:00N 29°47' W 092°08'3 6.0
2017-Oct-07 05:30N 29°47' W 092°11'1 1.8
2017-Oct-07 05:00N 29°47' W 092°12'1 1.9
2017-Oct-07 04:30N 29°48' W 092°13'0 0.0
2017-Oct-07 04:00N 29°48' W 092°13'1 1.6
2017-Oct-07 03:30N 29°48' W 092°14'3 6.1
2017-Oct-07 03:00N 29°49' W 092°17'  

Dump ship's entire track history